Time;durP1;ratioP1;P1;durP2;ratioP2;P2;SDS_P1;SDS_P2;PMS_P1;PMS_P2;Temp;Humidity;BMP_temperature;BMP_pressure;BME280_temperature;BME280_humidity;BME280_pressure;Samples;Min_cycle;Max_cycle;Signal;HPM_P1;HPM_P2
2022/06/16 00:01:19;;;;;;;7.28;3.28;;;;;;;23.33;53.33;96213.91;10355883;28;100497;-70
2022/06/16 00:06:22;;;;;;;5.53;2.97;;;;;;;23.22;53.85;96210.16;10347343;28;96872;-70
2022/06/16 00:11:25;;;;;;;7.63;3.30;;;;;;;23.11;53.82;96202.94;10356405;28;97496;-70
2022/06/16 00:16:30;;;;;;;7.27;3.03;;;;;;;23.05;53.45;96203.84;10348565;28;98614;-70
2022/06/16 00:21:33;;;;;;;7.45;3.42;;;;;;;23.08;53.28;96198.88;10355950;28;98667;-70
2022/06/16 00:26:36;;;;;;;5.32;3.00;;;;;;;23.14;52.90;96191.81;10357765;28;97883;-70
2022/06/16 00:31:40;;;;;;;8.52;3.13;;;;;;;23.16;52.54;96189.75;10355048;28;99156;-70
2022/06/16 00:36:43;;;;;;;7.47;2.70;;;;;;;23.22;52.29;96183.50;10358242;28;96904;-70
2022/06/16 00:41:46;;;;;;;6.65;3.10;;;;;;;23.22;52.00;96183.50;10359233;28;97592;-70
2022/06/16 00:46:50;;;;;;;6.60;2.88;;;;;;;23.16;52.27;96179.09;10354976;28;96955;-70
2022/06/16 00:52:03;;;;;;;6.65;3.10;;;;;;;23.08;52.83;96176.75;10354158;28;96973;-70
2022/06/16 00:57:09;;;;;;;7.82;2.78;;;;;;;22.93;53.55;96182.50;10355124;28;98663;-70
2022/06/16 01:02:14;;;;;;;5.07;3.13;;;;;;;22.79;53.73;96181.88;10358763;28;98832;-70
2022/06/16 01:07:21;;;;;;;6.05;2.90;;;;;;;22.72;53.56;96179.31;10346793;28;98698;-70
2022/06/16 01:24:48;;;;;;;9.38;3.20;;;;;;;22.27;54.70;96176.19;10364576;28;97164;-70
2022/06/16 01:29:59;;;;;;;8.43;3.53;;;;;;;22.18;55.33;96168.50;10351584;28;96826;-70
2022/06/16 01:35:12;;;;;;;9.30;3.58;;;;;;;22.18;55.57;96173.81;10341159;28;97007;-70
2022/06/16 01:40:22;;;;;;;7.75;3.13;;;;;;;21.98;56.13;96173.22;10339597;28;96998;-70
2022/06/16 01:45:32;;;;;;;6.47;3.20;;;;;;;21.48;57.73;96177.56;10342685;28;98015;-70
2022/06/16 01:50:40;;;;;;;9.43;3.85;;;;;;;21.22;58.85;96185.75;10340998;28;97871;-70
2022/06/16 01:55:50;;;;;;;8.43;3.17;;;;;;;21.18;58.90;96184.56;10359411;28;97159;-70
2022/06/16 02:00:57;;;;;;;6.78;3.97;;;;;;;20.93;60.13;96180.03;10345653;28;98334;-70
2022/06/16 02:06:05;;;;;;;7.82;3.63;;;;;;;20.95;60.39;96177.97;10346986;28;96896;-70
2022/06/16 02:11:13;;;;;;;7.22;3.85;;;;;;;20.54;61.62;96168.56;10351153;28;98646;-70
2022/06/16 02:16:22;;;;;;;6.88;3.70;;;;;;;20.50;61.97;96170.84;10343470;28;96792;-70
2022/06/16 02:21:31;;;;;;;7.50;3.88;;;;;;;20.49;61.04;96189.63;10344725;28;97333;-70
2022/06/16 02:26:35;;;;;;;6.18;3.20;;;;;;;20.59;60.43;96187.34;10352786;28;96936;-70
2022/06/16 02:31:47;;;;;;;5.93;3.67;;;;;;;20.59;60.89;96184.69;10357991;28;96834;-70
2022/06/16 02:37:15;;;;;;;5.38;3.75;;;;;;;20.61;61.04;96193.25;10345194;28;98071;-70
2022/06/16 02:42:26;;;;;;;11.05;3.85;;;;;;;20.63;61.22;96191.19;10360406;28;96817;-70
2022/06/16 02:47:46;;;;;;;10.65;3.95;;;;;;;20.66;61.14;96182.00;10341854;28;96925;-70
2022/06/16 02:53:00;;;;;;;7.05;3.72;;;;;;;20.59;62.01;96195.28;10349636;28;96914;-70
2022/06/16 02:58:04;;;;;;;6.07;3.70;;;;;;;20.30;62.82;96194.78;10343893;28;96955;-70
2022/06/16 03:03:20;;;;;;;8.05;3.60;;;;;;;20.05;62.32;96200.00;10365362;28;97136;-70
2022/06/16 03:08:25;;;;;;;8.55;3.85;;;;;;;20.10;62.58;96204.69;10361187;28;97921;-70
2022/06/16 03:13:30;;;;;;;6.97;3.67;;;;;;;20.07;62.70;96205.09;10352627;28;97692;-70
2022/06/16 03:18:34;;;;;;;9.63;3.97;;;;;;;20.08;62.63;96209.34;10368258;28;97329;-70
2022/06/16 03:23:37;;;;;;;11.05;4.13;;;;;;;19.93;63.13;96214.91;10361727;28;96893;-70
2022/06/16 03:28:40;;;;;;;9.73;4.32;;;;;;;19.91;63.30;96220.41;10348347;28;97121;-70
2022/06/16 03:33:44;;;;;;;5.63;4.00;;;;;;;19.91;63.54;96227.56;10362724;28;96941;-70
2022/06/16 03:38:49;;;;;;;7.90;4.22;;;;;;;19.59;65.32;96236.13;10357202;28;96791;-70
2022/06/16 03:43:52;;;;;;;7.95;4.30;;;;;;;19.72;63.37;96232.66;10358249;28;96739;-70
2022/06/16 03:48:56;;;;;;;6.47;4.03;;;;;;;19.58;64.33;96239.78;10356621;28;98251;-70
2022/06/16 03:53:59;;;;;;;7.47;4.15;;;;;;;19.65;64.30;96234.50;10345326;28;97082;-70
2022/06/16 03:59:02;;;;;;;8.68;3.42;;;;;;;19.62;64.75;96246.31;10360196;28;97211;-70
2022/06/16 04:04:07;;;;;;;7.32;3.83;;;;;;;19.47;65.35;96264.25;10358848;28;98558;-70
2022/06/16 04:09:11;;;;;;;7.97;3.78;;;;;;;19.58;64.58;96268.94;10348618;28;98830;-70
2022/06/16 04:14:15;;;;;;;8.32;3.88;;;;;;;19.71;63.39;96286.66;10348416;28;96829;-70
2022/06/16 04:19:22;;;;;;;7.93;4.20;;;;;;;19.78;63.76;96295.47;10359091;28;100247;-70
2022/06/16 04:24:25;;;;;;;6.82;3.28;;;;;;;19.90;62.65;96285.06;10384347;28;96952;-70
2022/06/16 04:29:27;;;;;;;6.68;3.53;;;;;;;19.96;61.67;96288.75;10359751;28;97340;-70
2022/06/16 04:34:32;;;;;;;9.15;3.63;;;;;;;19.90;63.15;96290.34;10354701;28;97153;-70
2022/06/16 04:39:35;;;;;;;7.82;3.80;;;;;;;19.83;62.65;96294.84;10350179;28;97293;-70
2022/06/16 04:44:40;;;;;;;11.03;3.93;;;;;;;19.98;62.94;96303.41;10352840;28;97840;-70
2022/06/16 04:49:48;;;;;;;11.90;4.07;;;;;;;20.19;62.53;96301.56;10359474;28;98271;-70
2022/06/16 04:54:51;;;;;;;8.07;4.00;;;;;;;20.27;62.16;96295.22;10356811;28;98707;-70
2022/06/16 05:00:02;;;;;;;8.32;3.83;;;;;;;20.34;62.71;96301.34;10349954;28;97671;-70
2022/06/16 05:05:26;;;;;;;7.38;3.40;;;;;;;20.29;63.29;96309.91;10353237;28;97948;-70
2022/06/16 05:10:29;;;;;;;10.82;3.78;;;;;;;20.22;63.43;96308.28;10344348;28;96778;-70
2022/06/16 05:15:32;;;;;;;7.35;4.00;;;;;;;20.17;63.91;96317.69;10350410;28;96905;-70
2022/06/16 05:20:37;;;;;;;6.28;3.90;;;;;;;20.16;63.32;96320.53;10348065;28;97613;-70
2022/06/16 05:25:40;;;;;;;6.82;3.42;;;;;;;20.29;63.60;96322.38;10351425;28;97910;-70
2022/06/16 05:30:44;;;;;;;9.25;3.45;;;;;;;20.50;62.42;96318.63;10346531;28;98813;-70
2022/06/16 05:35:58;;;;;;;8.97;3.57;;;;;;;20.75;62.02;96314.31;10371490;28;100642;-70
2022/06/16 05:41:03;;;;;;;7.68;3.08;;;;;;;21.02;61.29;96316.84;10353935;28;97841;-70
2022/06/16 05:46:08;;;;;;;8.00;3.35;;;;;;;21.21;60.42;96323.09;10355195;28;96794;-70
2022/06/16 05:51:18;;;;;;;6.10;3.42;;;;;;;21.39;60.00;96325.00;10355066;28;97195;-70
2022/06/16 05:56:21;;;;;;;7.13;3.20;;;;;;;21.55;59.09;96329.00;10358566;28;100616;-70
2022/06/16 06:01:24;;;;;;;6.45;3.08;;;;;;;21.72;59.06;96337.31;10349247;28;96968;-70
2022/06/16 06:06:29;;;;;;;7.30;3.72;;;;;;;21.86;58.67;96340.69;10356232;28;97546;-70
2022/06/16 06:16:55;;;;;;;7.07;3.53;;;;;;;22.07;58.38;96336.81;10356638;28;96817;-70
2022/06/16 06:22:05;;;;;;;6.63;3.50;;;;;;;22.22;58.69;96339.97;10365263;28;96912;-70
2022/06/16 06:27:12;;;;;;;7.18;4.00;;;;;;;22.38;58.24;96333.25;10358451;28;96927;-70
2022/06/16 06:32:16;;;;;;;6.63;3.20;;;;;;;22.50;58.26;96330.72;10346480;28;96783;-70
2022/06/16 06:37:23;;;;;;;9.70;3.72;;;;;;;22.63;57.78;96327.91;10337901;28;97472;-70
2022/06/16 06:42:27;;;;;;;6.22;3.30;;;;;;;22.81;57.41;96331.63;10342420;28;97003;-70
2022/06/16 06:47:31;;;;;;;8.55;3.67;;;;;;;22.95;56.37;96325.09;10351950;28;96824;-70
2022/06/16 06:52:35;;;;;;;7.55;3.33;;;;;;;23.13;55.79;96320.75;10346189;28;97044;-70
2022/06/16 06:57:38;;;;;;;;;;;;;;;23.26;55.53;96327.78;10345685;28;96960;-70
2022/06/16 07:02:41;;;;;;;6.63;3.33;;;;;;;23.33;55.87;96329.34;10353126;28;99054;-72
2022/06/16 07:07:46;;;;;;;7.43;4.07;;;;;;;23.46;55.30;96340.84;10341238;28;97015;-72
2022/06/16 07:12:49;;;;;;;8.32;3.30;;;;;;;23.54;54.08;96348.53;10340367;28;96723;-72
2022/06/16 07:17:52;;;;;;;7.60;3.10;;;;;;;23.66;53.95;96349.38;10346520;28;96806;-72
2022/06/16 07:22:57;;;;;;;9.65;3.72;;;;;;;23.81;52.49;96353.47;10349804;28;97692;-72
2022/06/16 07:28:00;;;;;;;8.55;3.22;;;;;;;23.98;53.05;96356.28;10344359;28;97291;-72
2022/06/16 07:33:03;;;;;;;9.80;3.47;;;;;;;24.11;52.48;96356.13;10346382;28;96923;-72
2022/06/16 07:38:08;;;;;;;9.23;3.30;;;;;;;24.32;51.90;96365.41;10342777;28;98566;-72
2022/06/16 07:43:11;;;;;;;7.30;3.05;;;;;;;24.46;51.79;96358.78;10344711;28;96993;-72
2022/06/16 07:48:15;;;;;;;8.40;3.05;;;;;;;24.59;51.04;96362.25;10363626;28;96831;-72
2022/06/16 07:53:19;;;;;;;9.25;3.53;;;;;;;24.74;50.98;96359.91;10360708;28;96853;-72
2022/06/16 07:58:29;;;;;;;8.63;3.45;;;;;;;24.97;50.71;96350.25;10351346;28;97072;-72
2022/06/16 08:03:32;;;;;;;7.78;3.55;;;;;;;25.05;50.16;96355.25;10367041;27;96839;-72
2022/06/16 08:08:37;;;;;;;8.73;3.20;;;;;;;25.23;49.99;96341.72;10359249;28;96778;-72
2022/06/16 08:13:40;;;;;;;8.75;3.40;;;;;;;25.47;49.24;96357.66;10363830;28;96857;-72
2022/06/16 08:18:42;;;;;;;7.25;3.35;;;;;;;25.53;49.40;96351.34;10366841;28;96965;-72
2022/06/16 08:23:47;;;;;;;6.55;3.40;;;;;;;25.75;48.88;96358.69;10359445;28;96990;-72
2022/06/16 08:28:51;;;;;;;5.72;3.08;;;;;;;25.93;48.33;96361.16;10354594;28;96722;-72
2022/06/16 08:33:55;;;;;;;6.00;3.40;;;;;;;26.08;47.82;96357.91;10365418;28;97279;-72
2022/06/16 08:39:00;;;;;;;6.18;3.53;;;;;;;26.18;47.16;96362.63;10361112;28;96905;-72
2022/06/16 08:44:11;;;;;;;10.02;3.65;;;;;;;26.40;46.88;96361.91;10365775;28;96960;-72
2022/06/16 08:49:30;;;;;;;8.73;3.25;;;;;;;26.54;46.78;96361.31;10349200;27;96934;-72
2022/06/16 08:54:48;;;;;;;7.97;3.83;;;;;;;26.74;46.43;96371.53;10358529;28;96772;-72
2022/06/16 08:59:54;;;;;;;9.35;3.50;;;;;;;26.94;46.32;96375.56;10358676;28;96773;-72
2022/06/16 09:05:05;;;;;;;4.35;3.00;;;;;;;27.26;45.67;96374.84;10366043;28;99802;-72
2022/06/16 09:10:24;;;;;;;8.93;3.67;;;;;;;27.61;44.87;96369.09;10361420;28;96758;-72
2022/06/16 09:15:32;;;;;;;9.15;3.45;;;;;;;27.99;43.95;96371.84;10358291;28;96745;-72
2022/06/16 09:20:41;;;;;;;6.10;3.33;;;;;;;28.24;43.21;96376.66;10357793;28;96999;-72
2022/06/16 09:25:57;;;;;;;7.68;3.53;;;;;;;28.39;43.32;96384.03;10349448;28;96942;-72
2022/06/16 09:31:04;;;;;;;8.40;3.45;;;;;;;28.48;42.49;96387.03;10351585;27;96956;-72
2022/06/16 09:36:13;;;;;;;7.35;3.38;;;;;;;28.62;41.80;96396.28;10369692;28;96773;-72
2022/06/16 09:46:47;;;;;;;6.00;3.50;;;;;;;28.49;41.22;96392.16;10350578;28;96919;-72
2022/06/16 09:51:55;;;;;;;6.93;3.10;;;;;;;28.51;40.78;96392.69;10353102;27;96959;-73
2022/06/16 09:57:05;;;;;;;6.15;3.60;;;;;;;28.79;40.70;96394.25;10356872;28;96970;-72
2022/06/16 10:02:15;;;;;;;10.90;3.40;;;;;;;29.07;39.68;96388.75;10354888;28;96710;-72
2022/06/16 10:07:26;;;;;;;7.63;3.17;;;;;;;29.34;38.82;96393.97;10359147;28;97018;-72
2022/06/16 10:12:36;;;;;;;6.30;3.22;;;;;;;29.43;37.85;96388.88;10370708;28;97860;-72
2022/06/16 10:17:43;;;;;;;9.48;3.90;;;;;;;29.29;37.63;96384.00;10361524;28;96963;-73
2022/06/16 10:22:49;;;;;;;8.05;3.10;;;;;;;29.26;37.61;96389.09;10372280;28;97077;-73
2022/06/16 10:27:59;;;;;;;5.22;2.90;;;;;;;29.11;37.17;96389.84;10366441;28;98579;-72
2022/06/16 10:33:11;;;;;;;7.68;2.90;;;;;;;29.08;36.86;96387.69;10358234;28;97194;-72
2022/06/16 10:38:22;;;;;;;6.35;3.08;;;;;;;29.22;35.55;96374.56;10358124;28;97088;-73
2022/06/16 10:43:28;;;;;;;6.28;2.80;;;;;;;29.43;35.38;96387.00;10346771;28;97129;-72
2022/06/16 10:48:38;;;;;;;4.63;2.95;;;;;;;29.57;34.49;96371.19;10354100;28;97362;-72
2022/06/16 10:53:43;;;;;;;5.05;2.97;;;;;;;29.67;34.43;96376.59;10354628;28;96976;-72
2022/06/16 10:58:50;;;;;;;4.18;2.67;;;;;;;29.74;36.15;96368.25;10348062;28;96919;-72
2022/06/16 11:04:03;;;;;;;5.05;2.90;;;;;;;29.77;35.77;96364.25;10360769;28;96853;-73
2022/06/16 11:09:08;;;;;;;6.13;3.00;;;;;;;29.89;35.06;96372.88;10362019;28;98367;-73
2022/06/16 11:14:17;;;;;;;6.40;3.10;;;;;;;29.91;35.37;96365.31;10352064;28;96893;-73
2022/06/16 11:19:28;;;;;;;4.15;2.80;;;;;;;29.76;35.63;96376.06;10358521;28;97079;-72
2022/06/16 11:24:33;;;;;;;4.35;2.80;;;;;;;29.61;35.50;96369.59;10368879;28;96876;-73
2022/06/16 11:29:37;;;;;;;5.18;3.13;;;;;;;29.39;35.19;96368.97;10366042;27;102278;-73
2022/06/16 11:34:43;;;;;;;5.00;2.70;;;;;;;29.51;36.53;96361.47;10349343;28;97826;-76
2022/06/16 11:39:59;;;;;;;5.60;2.40;;;;;;;29.56;32.95;96364.19;10339196;28;98620;-76
2022/06/16 11:45:16;;;;;;;5.30;2.40;;;;;;;29.61;31.71;96352.63;10357959;28;97637;-76
2022/06/16 11:50:31;;;;;;;3.72;2.03;;;;;;;29.69;30.21;96347.50;10356073;28;96947;-71
2022/06/16 11:55:38;;;;;;;5.85;2.10;;;;;;;29.75;30.67;96345.66;10351104;28;96914;-71
2022/06/16 12:00:48;;;;;;;4.72;2.22;;;;;;;29.90;30.30;96351.06;10351055;28;98901;-70
2022/06/16 12:06:17;;;;;;;3.45;2.15;;;;;;;29.99;31.59;96329.78;10341260;28;96874;-69
2022/06/16 12:11:28;;;;;;;5.80;2.42;;;;;;;30.18;30.99;96332.75;10351341;28;96841;-70
2022/06/16 12:17:07;;;;;;;7.63;2.97;;;;;;;30.44;32.56;96335.41;10353505;28;97089;-70
2022/06/16 12:22:18;;;;;;;4.20;2.55;;;;;;;30.44;33.40;96324.63;10365662;28;98013;-70
2022/06/16 12:27:25;;;;;;;7.30;3.33;;;;;;;30.56;33.52;96318.94;10356162;28;96864;-70
2022/06/16 12:32:41;;;;;;;5.05;2.70;;;;;;;30.45;33.01;96316.28;10353757;28;101491;-70
2022/06/16 12:37:48;;;;;;;5.82;2.50;;;;;;;30.29;34.04;96312.00;10347983;28;96946;-70
2022/06/16 12:42:55;;;;;;;5.90;2.67;;;;;;;30.17;34.04;96314.97;10354812;28;97471;-70
2022/06/16 12:48:03;;;;;;;5.30;2.50;;;;;;;30.10;34.32;96315.22;10362584;28;97364;-69
2022/06/16 12:53:12;;;;;;;4.15;2.42;;;;;;;30.21;33.75;96310.66;10360357;28;97656;-72
2022/06/16 12:58:20;;;;;;;2.78;2.30;;;;;;;30.32;33.70;96306.03;10353373;28;97948;-71
2022/06/16 13:03:29;;;;;;;3.70;2.08;;;;;;;30.33;32.20;96313.06;10362361;28;96936;-71
2022/06/16 13:08:36;;;;;;;9.52;2.40;;;;;;;30.36;31.09;96307.13;10363898;28;96855;-72
2022/06/16 13:13:42;;;;;;;3.67;2.13;;;;;;;30.39;31.39;96301.22;10351418;28;96828;-70
2022/06/16 13:18:52;;;;;;;6.18;2.67;;;;;;;30.45;30.66;96296.59;10347738;28;97034;-72
2022/06/16 13:24:03;;;;;;;4.05;2.30;;;;;;;30.56;31.33;96300.06;10366040;28;97880;-71
2022/06/16 13:29:15;;;;;;;4.03;2.50;;;;;;;30.63;31.52;96301.41;10344003;28;97517;-71
2022/06/16 13:34:21;;;;;;;4.32;2.08;;;;;;;30.68;31.50;96303.28;10355438;28;97128;-70
2022/06/16 13:39:56;;;;;;;3.88;2.60;;;;;;;30.76;31.65;96300.03;10351587;28;99177;-70
2022/06/16 13:45:36;;;;;;;3.83;2.15;;;;;;;30.96;30.49;96306.44;10354587;28;96996;-70
2022/06/16 13:50:44;;;;;;;2.97;2.35;;;;;;;30.96;30.92;96309.13;10347797;28;96950;-70
2022/06/16 13:55:56;;;;;;;4.20;2.40;;;;;;;31.03;30.99;96298.84;10367379;28;96798;-70
2022/06/16 14:01:18;;;;;;;4.88;2.55;;;;;;;31.17;31.69;96310.66;10363835;28;96871;-70
2022/06/16 14:06:25;;;;;;;5.20;2.47;;;;;;;31.48;31.63;96305.09;10340392;28;96864;-70
2022/06/16 14:11:31;;;;;;;4.07;2.13;;;;;;;31.76;29.94;96314.38;10362111;28;97661;-70
2022/06/16 14:16:36;;;;;;;4.40;2.40;;;;;;;32.49;29.98;96301.03;10353615;28;96965;-71
2022/06/16 14:21:47;;;;;;;4.30;2.42;;;;;;;33.16;28.92;96303.00;10356031;28;96903;-71
2022/06/16 14:26:51;;;;;;;3.63;2.20;;;;;;;33.98;28.80;96301.78;10347035;28;97331;-72
2022/06/16 14:32:01;;;;;;;4.03;2.20;;;;;;;35.04;28.31;96299.31;10347843;28;97664;-71
2022/06/16 14:37:13;;;;;;;3.50;2.30;;;;;;;35.70;26.90;96299.78;10359129;28;97647;-70
2022/06/16 14:42:20;;;;;;;2.50;1.87;;;;;;;35.70;27.09;96299.78;10342579;28;98505;-71
2022/06/16 14:47:31;;;;;;;4.78;2.20;;;;;;;35.93;25.47;96292.47;10346350;28;97705;-72
2022/06/16 14:52:42;;;;;;;4.77;2.43;;;;;;;36.41;24.35;96291.78;10358403;28;97724;-71
2022/06/16 14:57:47;;;;;;;4.95;2.42;;;;;;;36.69;25.07;96297.00;10354845;28;98977;-72
2022/06/16 15:02:53;;;;;;;4.43;2.42;;;;;;;36.94;24.71;96297.47;10359325;28;96761;-71
2022/06/16 15:07:57;;;;;;;3.10;1.98;;;;;;;36.75;24.29;96287.63;10361872;28;97397;-70
2022/06/16 15:13:02;;;;;;;3.03;1.77;;;;;;;36.96;24.76;96292.50;10344607;28;101231;-70
2022/06/16 15:18:13;;;;;;;4.78;2.00;;;;;;;36.86;23.95;96276.47;10353821;28;96960;-70
2022/06/16 15:23:20;;;;;;;3.13;2.10;;;;;;;37.21;24.90;96273.81;10366970;28;97449;-71
2022/06/16 15:28:26;;;;;;;4.63;2.22;;;;;;;37.56;23.71;96264.53;10348445;28;97852;-70
2022/06/16 15:38:53;;;;;;;3.15;1.80;;;;;;;37.83;22.73;96272.72;10357062;28;96814;-70
2022/06/16 15:44:06;;;;;;;2.55;1.95;;;;;;;37.81;22.43;96264.88;10353156;28;97747;-71
2022/06/16 15:49:11;;;;;;;5.13;1.70;;;;;;;38.02;22.57;96280.53;10372390;28;98334;-70
2022/06/16 15:54:19;;;;;;;2.97;1.80;;;;;;;38.05;22.61;96263.53;10368110;28;97023;-70
2022/06/16 15:59:22;;;;;;;3.38;1.90;;;;;;;38.34;22.24;96262.03;10358633;28;96882;-70
2022/06/16 16:04:28;;;;;;;3.28;2.00;;;;;;;38.78;22.15;96262.66;10375523;28;96951;-70
2022/06/16 16:09:33;;;;;;;5.25;2.05;;;;;;;39.15;21.72;96260.19;10374367;28;97162;-71
2022/06/16 16:14:58;;;;;;;6.40;4.15;;;;;;;39.20;21.47;96273.66;10352059;28;96827;-71
2022/06/16 16:20:02;;;;;;;4.35;1.90;;;;;;;39.28;21.33;96270.09;10354831;28;97715;-71
2022/06/16 16:25:07;;;;;;;2.88;1.80;;;;;;;39.42;21.41;96265.13;10370792;28;97116;-71
2022/06/16 16:30:17;;;;;;;3.45;1.60;;;;;;;39.42;21.04;96259.66;10366871;28;96860;-71
2022/06/16 16:35:22;;;;;;;3.60;1.80;;;;;;;39.45;21.54;96268.34;10356300;28;97810;-71
2022/06/16 16:45:53;;;;;;;3.90;2.10;;;;;;;39.34;21.62;96262.47;10353260;28;96829;-71
2022/06/16 16:51:16;;;;;;;3.97;1.80;;;;;;;38.90;22.24;96261.94;10366053;28;97979;-71
2022/06/16 16:56:32;;;;;;;4.78;1.77;;;;;;;39.05;22.57;96261.34;10368389;28;96930;-71
2022/06/16 17:01:37;;;;;;;3.72;1.73;;;;;;;39.09;22.42;96261.50;10346436;28;96715;-70
2022/06/16 17:06:40;;;;;;;2.88;1.80;;;;;;;39.24;22.49;96258.19;10348788;28;96914;-71
2022/06/16 17:11:54;;;;;;;4.43;1.98;;;;;;;39.08;22.41;96265.38;10345488;28;97031;-72
2022/06/16 17:16:58;;;;;;;3.35;1.95;;;;;;;38.61;22.46;96264.31;10355834;28;96779;-71
2022/06/16 17:22:02;;;;;;;3.60;1.88;;;;;;;38.16;23.05;96264.78;10350328;28;97191;-70
2022/06/16 17:27:08;;;;;;;6.32;2.00;;;;;;;37.42;23.66;96276.72;10351223;28;96984;-70
2022/06/16 17:32:16;;;;;;;4.20;2.10;;;;;;;37.69;23.51;96262.78;10354025;28;96770;-70
2022/06/16 17:37:24;;;;;;;3.08;1.83;;;;;;;37.67;23.33;96275.13;10359842;28;96865;-71
2022/06/16 17:42:28;;;;;;;4.28;1.90;;;;;;;37.06;24.40;96284.03;10358705;28;96947;-70
2022/06/16 17:47:32;;;;;;;3.72;1.83;;;;;;;36.01;25.06;96294.41;10356943;28;96722;-71
2022/06/16 18:03:18;;;;;;;3.92;1.80;;;;;;;34.21;26.88;96279.19;10348738;28;96873;-71
2022/06/16 18:08:27;;;;;;;3.75;2.00;;;;;;;33.74;27.19;96291.06;10358383;28;97859;-70
2022/06/16 18:13:33;;;;;;;3.42;1.80;;;;;;;33.67;27.08;96288.72;10346274;28;99932;-71
2022/06/16 18:18:39;;;;;;;4.03;1.90;;;;;;;32.81;27.61;96300.44;10347672;28;97175;-70
2022/06/16 18:23:43;;;;;;;4.43;1.90;;;;;;;31.67;29.41;96286.31;10345973;28;97119;-71
2022/06/16 18:28:51;;;;;;;3.65;2.00;;;;;;;30.89;30.14;96300.53;10345749;28;96934;-70
2022/06/16 18:33:54;;;;;;;2.45;1.77;;;;;;;30.34;30.61;96303.91;10355032;28;97526;-70
2022/06/16 18:39:09;;;;;;;3.25;2.15;;;;;;;29.97;31.37;96302.28;10345402;28;96946;-70
2022/06/16 18:44:17;;;;;;;4.40;2.40;;;;;;;29.64;32.01;96290.97;10346903;28;97009;-70
2022/06/16 18:49:20;;;;;;;2.47;2.10;;;;;;;29.48;31.88;96308.16;10344526;28;97165;-70
2022/06/16 18:54:23;;;;;;;3.70;2.30;;;;;;;29.32;32.12;96310.81;10346291;28;97162;-70
2022/06/16 18:59:27;;;;;;;3.50;2.10;;;;;;;28.96;32.97;96317.97;10355818;28;100208;-70
2022/06/16 19:04:31;;;;;;;2.88;1.95;;;;;;;28.68;33.52;96319.19;10349288;28;99743;-70
2022/06/16 19:09:34;;;;;;;7.35;2.15;;;;;;;28.55;33.75;96329.31;10351249;28;96763;-70
2022/06/16 19:14:38;;;;;;;;;;;;;;;28.47;33.08;96327.13;10340586;28;98168;-70
2022/06/16 19:19:42;;;;;;;;;;;;;;;28.45;32.55;96339.19;10366326;28;96993;-70
2022/06/16 19:24:47;;;;;;;3.15;2.13;;;;;;;28.37;33.35;96337.81;10337494;28;100274;-70
2022/06/16 19:29:51;;;;;;;5.05;2.22;;;;;;;28.33;33.87;96352.84;10347067;28;96977;-70
2022/06/16 19:34:54;;;;;;;2.80;2.05;;;;;;;28.22;33.94;96346.53;10343469;28;96849;-70
2022/06/16 19:39:57;;;;;;;4.57;2.30;;;;;;;28.13;33.98;96359.63;10347527;28;97696;-71
2022/06/16 19:55:54;;;;;;;6.40;2.25;;;;;;;27.66;34.67;96376.38;10365333;28;96736;-71
2022/06/16 20:00:59;;;;;;;4.57;2.22;;;;;;;27.57;34.84;96378.69;10355818;27;96736;-70
2022/06/16 20:06:05;;;;;;;5.65;2.50;;;;;;;27.46;34.66;96388.50;10380093;28;97128;-70
2022/06/16 20:11:09;;;;;;;4.47;2.38;;;;;;;27.34;34.18;96395.88;10349290;28;96792;-70
2022/06/16 20:16:13;;;;;;;4.50;3.15;;;;;;;27.18;35.46;96418.19;10351793;28;97169;-70
2022/06/16 20:21:20;;;;;;;6.15;3.25;;;;;;;26.98;36.25;96426.81;10359885;28;98969;-72
2022/06/16 20:26:23;;;;;;;3.55;2.38;;;;;;;26.80;36.51;96438.59;10371098;28;97302;-71
2022/06/16 20:31:28;;;;;;;3.93;2.63;;;;;;;26.64;36.80;96438.38;10351748;28;97232;-72
2022/06/16 20:36:31;;;;;;;4.35;2.53;;;;;;;26.52;36.75;96432.28;10358985;28;98084;-72
2022/06/16 20:47:01;;;;;;;5.35;2.65;;;;;;;26.19;37.28;96442.72;10343839;28;97798;-72
2022/06/16 20:52:08;;;;;;;4.28;2.50;;;;;;;25.96;38.02;96443.66;10359024;28;96854;-72
2022/06/16 21:02:36;;;;;;;4.30;2.63;;;;;;;25.38;39.20;96471.41;10360733;28;96823;-72
2022/06/16 21:07:39;;;;;;;4.90;2.40;;;;;;;25.20;39.29;96473.19;10355130;28;96854;-72
2022/06/16 21:12:45;;;;;;;3.63;2.50;;;;;;;25.06;38.89;96464.59;10366383;28;96892;-72
2022/06/16 21:17:50;;;;;;;9.10;6.95;;;;;;;24.87;39.64;96466.59;10358486;28;96933;-72
2022/06/16 21:22:53;;;;;;;3.92;2.65;;;;;;;24.70;39.90;96481.66;10372623;28;96816;-72
2022/06/16 21:27:56;;;;;;;5.63;2.22;;;;;;;24.45;40.95;96482.69;10368375;28;97391;-72
2022/06/16 21:33:01;;;;;;;3.35;2.20;;;;;;;24.25;41.40;96492.84;10354209;28;100969;-72
2022/06/16 21:38:06;;;;;;;3.72;2.42;;;;;;;24.10;42.08;96493.25;10368652;28;97921;-72
2022/06/16 21:43:11;;;;;;;3.83;2.58;;;;;;;23.95;42.63;96485.66;10367025;28;96839;-72
2022/06/16 21:48:18;;;;;;;4.47;2.67;;;;;;;23.66;43.29;96493.41;10361508;28;96879;-72
2022/06/16 21:53:21;;;;;;;5.03;2.42;;;;;;;23.25;44.24;96502.03;10364943;28;96948;-72
2022/06/16 21:58:24;;;;;;;5.87;2.20;;;;;;;23.14;44.05;96500.94;10357079;28;100550;-72
2022/06/16 22:03:32;;;;;;;4.73;2.20;;;;;;;22.84;44.54;96508.78;10365263;28;96896;-72
2022/06/16 22:08:35;;;;;;;5.10;2.45;;;;;;;22.66;44.70;96507.72;10349215;28;96762;-72
2022/06/16 22:13:38;;;;;;;5.07;2.58;;;;;;;22.62;45.29;96514.50;10364661;28;97612;-72
2022/06/16 22:18:46;;;;;;;4.30;2.40;;;;;;;22.45;45.36;96516.88;10354612;28;96858;-72
2022/06/16 22:23:49;;;;;;;4.45;2.63;;;;;;;22.19;46.05;96526.66;10360845;28;96901;-72
2022/06/16 22:28:54;;;;;;;3.17;2.60;;;;;;;22.09;46.15;96520.16;10370166;28;97171;-72
2022/06/16 22:33:59;;;;;;;4.53;2.47;;;;;;;21.90;46.81;96530.72;10363534;28;96759;-72
2022/06/16 22:39:02;;;;;;;4.25;2.55;;;;;;;21.47;47.77;96540.03;10360406;28;98551;-72
2022/06/16 22:44:08;;;;;;;6.50;2.53;;;;;;;21.28;48.24;96546.25;10352188;28;97127;-72
2022/06/16 22:49:19;;;;;;;4.75;2.67;;;;;;;21.27;48.38;96534.78;10362414;28;97114;-72
2022/06/16 22:59:42;;;;;;;5.75;3.17;;;;;;;21.37;48.02;96534.34;10242782;28;99950;-71
2022/06/16 23:04:48;;;;;;;4.80;2.35;;;;;;;21.32;47.34;96542.13;10243261;28;97425;-72
2022/06/16 23:09:51;;;;;;;5.97;4.28;;;;;;;21.20;47.83;96543.78;10247847;28;101405;-72
2022/06/16 23:14:53;;;;;;;6.40;4.25;;;;;;;21.17;48.29;96538.88;10250722;28;101290;-70
2022/06/16 23:19:58;;;;;;;4.57;2.63;;;;;;;21.11;47.70;96532.56;10252016;28;97926;-72
2022/06/16 23:25:00;;;;;;;3.58;2.15;;;;;;;21.06;47.25;96527.88;10254576;28;97037;-71
2022/06/16 23:30:04;;;;;;;4.78;2.40;;;;;;;21.01;48.27;96530.31;10246796;28;97185;-70
2022/06/16 23:35:13;;;;;;;3.43;2.10;;;;;;;20.96;48.79;96538.09;10289440;28;97031;-72
2022/06/16 23:40:18;;;;;;;3.38;2.20;;;;;;;20.87;47.50;96536.69;10352201;28;98693;-72
2022/06/16 23:45:21;;;;;;;4.28;2.25;;;;;;;20.90;47.52;96544.25;10349149;28;97463;-72
2022/06/16 23:50:31;;;;;;;4.63;2.50;;;;;;;20.85;48.72;96546.69;10340113;28;97596;-72
2022/06/16 23:55:36;;;;;;;3.35;2.35;;;;;;;20.63;49.62;96544.19;10370645;28;96881;-72
